sensor_id;sensor_type;location;lat;lon;timestamp;pressure;altitude;pressure_sealevel;temperature;humidity
71735;BME280;59577;52.122;5.406;2023-09-19T00:02:20;100759.19;;;14.13;100.00
71735;BME280;59577;52.122;5.406;2023-09-19T00:04:46;100762.66;;;14.09;100.00
71735;BME280;59577;52.122;5.406;2023-09-19T00:07:15;100765.72;;;14.04;100.00
71735;BME280;59577;52.122;5.406;2023-09-19T00:09:42;100770.75;;;13.99;100.00
71735;BME280;59577;52.122;5.406;2023-09-19T00:12:10;100778.50;;;13.97;100.00
71735;BME280;59577;52.122;5.406;2023-09-19T00:14:39;100778.09;;;13.95;100.00
71735;BME280;59577;52.122;5.406;2023-09-19T00:17:06;100779.28;;;13.97;100.00
71735;BME280;59577;52.122;5.406;2023-09-19T00:19:35;100784.69;;;13.94;100.00
71735;BME280;59577;52.122;5.406;2023-09-19T00:22:02;100785.84;;;13.92;100.00
71735;BME280;59577;52.122;5.406;2023-09-19T00:24:29;100774.94;;;13.92;100.00
71735;BME280;59577;52.122;5.406;2023-09-19T00:26:56;100774.94;;;13.92;100.00
71735;BME280;59577;52.122;5.406;2023-09-19T00:29:22;100774.19;;;13.92;100.00
71735;BME280;59577;52.122;5.406;2023-09-19T00:31:49;100784.66;;;13.90;100.00
71735;BME280;59577;52.122;5.406;2023-09-19T00:34:16;100788.50;;;13.85;100.00
71735;BME280;59577;52.122;5.406;2023-09-19T00:36:43;100786.16;;;13.84;100.00
71735;BME280;59577;52.122;5.406;2023-09-19T00:39:09;100789.69;;;13.84;100.00
71735;BME280;59577;52.122;5.406;2023-09-19T00:41:36;100792.00;;;13.86;100.00
71735;BME280;59577;52.122;5.406;2023-09-19T00:44:04;100788.88;;;13.84;100.00
71735;BME280;59577;52.122;5.406;2023-09-19T00:46:31;100788.09;;;13.83;100.00
71735;BME280;59577;52.122;5.406;2023-09-19T00:48:59;100790.06;;;13.86;100.00
71735;BME280;59577;52.122;5.406;2023-09-19T00:51:26;100797.88;;;13.88;100.00
71735;BME280;59577;52.122;5.406;2023-09-19T00:53:53;100793.22;;;13.92;100.00
71735;BME280;59577;52.122;5.406;2023-09-19T00:56:20;100792.47;;;13.91;100.00
71735;BME280;59577;52.122;5.406;2023-09-19T00:58:47;100796.34;;;13.94;100.00
71735;BME280;59577;52.122;5.406;2023-09-19T01:01:14;100807.63;;;13.96;100.00
71735;BME280;59577;52.122;5.406;2023-09-19T01:03:42;100802.66;;;14.02;100.00
71735;BME280;59577;52.122;5.406;2023-09-19T01:06:11;100805.00;;;14.03;100.00
71735;BME280;59577;52.122;5.406;2023-09-19T01:08:38;100811.25;;;14.07;100.00
71735;BME280;59577;52.122;5.406;2023-09-19T01:11:33;100814.34;;;14.06;100.00
71735;BME280;59577;52.122;5.406;2023-09-19T01:17:07;100809.25;;;14.01;100.00
71735;BME280;59577;52.122;5.406;2023-09-19T01:27:59;100809.53;;;13.88;100.00
71735;BME280;59577;52.122;5.406;2023-09-19T01:30:35;100807.19;;;13.87;100.00
71735;BME280;59577;52.122;5.406;2023-09-19T01:33:06;100814.19;;;13.88;100.00
71735;BME280;59577;52.122;5.406;2023-09-19T01:35:34;100813.75;;;13.86;100.00
71735;BME280;59577;52.122;5.406;2023-09-19T01:38:01;100810.66;;;13.87;100.00
71735;BME280;59577;52.122;5.406;2023-09-19T01:40:27;100808.31;;;13.86;100.00
71735;BME280;59577;52.122;5.406;2023-09-19T01:45:47;100812.56;;;13.80;100.00
71735;BME280;59577;52.122;5.406;2023-09-19T01:48:25;100817.59;;;13.78;100.00
71735;BME280;59577;52.122;5.406;2023-09-19T01:51:00;100816.00;;;13.77;100.00
71735;BME280;59577;52.122;5.406;2023-09-19T01:54:02;100819.13;;;13.79;100.00
71735;BME280;59577;52.122;5.406;2023-09-19T01:56:57;100819.13;;;13.79;100.00
71735;BME280;59577;52.122;5.406;2023-09-19T01:59:34;100825.41;;;13.83;100.00
71735;BME280;59577;52.122;5.406;2023-09-19T02:02:03;100829.69;;;13.84;100.00
71735;BME280;59577;52.122;5.406;2023-09-19T02:04:33;100816.44;;;13.82;100.00
71735;BME280;59577;52.122;5.406;2023-09-19T02:07:02;100825.78;;;13.81;100.00
71735;BME280;59577;52.122;5.406;2023-09-19T02:09:29;100826.56;;;13.82;100.00
71735;BME280;59577;52.122;5.406;2023-09-19T02:11:55;100823.06;;;13.81;100.00
71735;BME280;59577;52.122;5.406;2023-09-19T02:14:22;100828.88;;;13.80;100.00
71735;BME280;59577;52.122;5.406;2023-09-19T02:16:49;100825.75;;;13.78;100.00
71735;BME280;59577;52.122;5.406;2023-09-19T02:19:17;100816.78;;;13.77;100.00
71735;BME280;59577;52.122;5.406;2023-09-19T02:21:43;100817.19;;;13.76;100.00
71735;BME280;59577;52.122;5.406;2023-09-19T02:24:10;100810.91;;;13.71;100.00
71735;BME280;59577;52.122;5.406;2023-09-19T02:26:36;100824.50;;;13.71;100.00
71735;BME280;59577;52.122;5.406;2023-09-19T02:29:03;100825.28;;;13.72;100.00
71735;BME280;59577;52.122;5.406;2023-09-19T02:31:31;100828.00;;;13.72;100.00
71735;BME280;59577;52.122;5.406;2023-09-19T02:33:58;100832.72;;;13.75;100.00
71735;BME280;59577;52.122;5.406;2023-09-19T02:36:26;100829.22;;;13.75;100.00
71735;BME280;59577;52.122;5.406;2023-09-19T02:38:52;100834.25;;;13.72;100.00
71735;BME280;59577;52.122;5.406;2023-09-19T02:41:19;100827.59;;;13.70;100.00
71735;BME280;59577;52.122;5.406;2023-09-19T02:43:45;100833.78;;;13.67;100.00
71735;BME280;59577;52.122;5.406;2023-09-19T02:46:12;100832.97;;;13.63;100.00
71735;BME280;59577;52.122;5.406;2023-09-19T02:48:39;100837.19;;;13.57;100.00
71735;BME280;59577;52.122;5.406;2023-09-19T02:51:06;100833.22;;;13.50;100.00
71735;BME280;59577;52.122;5.406;2023-09-19T02:53:32;100834.69;;;13.44;100.00
71735;BME280;59577;52.122;5.406;2023-09-19T02:55:59;100834.25;;;13.39;100.00
71735;BME280;59577;52.122;5.406;2023-09-19T02:58:25;100838.06;;;13.34;100.00
71735;BME280;59577;52.122;5.406;2023-09-19T03:00:54;100846.16;;;13.30;100.00
71735;BME280;59577;52.122;5.406;2023-09-19T03:03:21;100843.41;;;13.27;100.00
71735;BME280;59577;52.122;5.406;2023-09-19T03:05:49;100838.28;;;13.22;100.00
71735;BME280;59577;52.122;5.406;2023-09-19T03:08:20;100836.69;;;13.17;100.00
71735;BME280;59577;52.122;5.406;2023-09-19T03:10:48;100839.00;;;13.15;100.00
71735;BME280;59577;52.122;5.406;2023-09-19T03:13:15;100825.31;;;13.08;100.00
71735;BME280;59577;52.122;5.406;2023-09-19T03:15:42;100832.28;;;13.05;100.00
71735;BME280;59577;52.122;5.406;2023-09-19T03:18:14;100825.22;;;13.01;100.00
71735;BME280;59577;52.122;5.406;2023-09-19T03:20:40;100832.19;;;12.98;100.00
71735;BME280;59577;52.122;5.406;2023-09-19T03:23:07;100836.41;;;12.95;100.00
71735;BME280;59577;52.122;5.406;2023-09-19T03:25:34;100835.59;;;12.91;100.00
71735;BME280;59577;52.122;5.406;2023-09-19T03:28:03;100835.50;;;12.84;100.00
71735;BME280;59577;52.122;5.406;2023-09-19T03:30:32;100833.50;;;12.81;100.00
71735;BME280;59577;52.122;5.406;2023-09-19T03:33:00;100842.38;;;12.78;100.00
71735;BME280;59577;52.122;5.406;2023-09-19T03:35:27;100838.84;;;12.74;100.00
71735;BME280;59577;52.122;5.406;2023-09-19T03:37:53;100840.38;;;12.75;100.00
71735;BME280;59577;52.122;5.406;2023-09-19T03:40:20;100844.22;;;12.70;100.00
71735;BME280;59577;52.122;5.406;2023-09-19T03:42:48;100837.16;;;12.66;100.00
71735;BME280;59577;52.122;5.406;2023-09-19T03:45:15;100830.09;;;12.61;100.00
71735;BME280;59577;52.122;5.406;2023-09-19T03:47:42;100825.78;;;12.56;100.00
71735;BME280;59577;52.122;5.406;2023-09-19T03:50:09;100828.06;;;12.54;100.00
71735;BME280;59577;52.122;5.406;2023-09-19T03:52:41;100825.69;;;12.49;100.00
71735;BME280;59577;52.122;5.406;2023-09-19T03:55:08;100833.38;;;12.47;100.00
71735;BME280;59577;52.122;5.406;2023-09-19T03:57:36;100836.03;;;12.44;100.00
71735;BME280;59577;52.122;5.406;2023-09-19T04:00:03;100830.91;;;12.38;100.00
71735;BME280;59577;52.122;5.406;2023-09-19T04:02:39;100843.72;;;12.38;100.00
71735;BME280;59577;52.122;5.406;2023-09-19T04:05:06;100847.56;;;12.37;100.00
71735;BME280;59577;52.122;5.406;2023-09-19T04:07:33;100844.81;;;12.33;100.00
71735;BME280;59577;52.122;5.406;2023-09-19T04:10:00;100856.81;;;12.32;100.00
71735;BME280;59577;52.122;5.406;2023-09-19T04:12:27;100862.19;;;12.29;100.00
71735;BME280;59577;52.122;5.406;2023-09-19T04:14:54;100866.03;;;12.28;100.00
71735;BME280;59577;52.122;5.406;2023-09-19T04:17:20;100864.47;;;12.27;100.00
71735;BME280;59577;52.122;5.406;2023-09-19T04:19:47;100872.19;;;12.25;100.00
71735;BME280;59577;52.122;5.406;2023-09-19T04:22:14;100871.00;;;12.22;100.00
71735;BME280;59577;52.122;5.406;2023-09-19T04:24:40;100882.19;;;12.20;100.00
71735;BME280;59577;52.122;5.406;2023-09-19T04:27:07;100887.22;;;12.18;100.00
71735;BME280;59577;52.122;5.406;2023-09-19T04:29:33;100889.56;;;12.20;100.00
71735;BME280;59577;52.122;5.406;2023-09-19T04:32:00;100897.25;;;12.18;100.00
71735;BME280;59577;52.122;5.406;2023-09-19T04:34:26;100891.84;;;12.18;100.00
71735;BME280;59577;52.122;5.406;2023-09-19T04:36:53;100893.00;;;12.17;100.00
71735;BME280;59577;52.122;5.406;2023-09-19T04:39:20;100906.16;;;12.15;100.00
71735;BME280;59577;52.122;5.406;2023-09-19T04:41:47;100914.72;;;12.17;100.00
71735;BME280;59577;52.122;5.406;2023-09-19T04:44:14;100924.84;;;12.20;100.00
71735;BME280;59577;52.122;5.406;2023-09-19T04:46:42;100909.34;;;12.20;100.00
71735;BME280;59577;52.122;5.406;2023-09-19T04:49:09;100909.75;;;12.22;100.00
71735;BME280;59577;52.122;5.406;2023-09-19T04:51:36;100913.25;;;12.23;100.00
71735;BME280;59577;52.122;5.406;2023-09-19T04:54:03;100905.47;;;12.21;100.00
71735;BME280;59577;52.122;5.406;2023-09-19T04:56:30;100897.31;;;12.21;100.00
71735;BME280;59577;52.122;5.406;2023-09-19T04:58:59;100910.91;;;12.21;100.00
71735;BME280;59577;52.122;5.406;2023-09-19T05:01:25;100893.06;;;12.20;100.00
71735;BME280;59577;52.122;5.406;2023-09-19T05:03:52;100903.13;;;12.20;100.00
71735;BME280;59577;52.122;5.406;2023-09-19T05:06:19;100900.44;;;12.20;100.00
71735;BME280;59577;52.122;5.406;2023-09-19T05:08:49;100907.41;;;12.21;100.00
71735;BME280;59577;52.122;5.406;2023-09-19T05:11:19;100900.44;;;12.20;100.00
71735;BME280;59577;52.122;5.406;2023-09-19T05:13:46;100911.69;;;12.22;100.00
71735;BME280;59577;52.122;5.406;2023-09-19T05:16:12;100917.13;;;12.22;100.00
71735;BME280;59577;52.122;5.406;2023-09-19T05:18:39;100917.53;;;12.24;100.00
71735;BME280;59577;52.122;5.406;2023-09-19T05:21:06;100914.84;;;12.24;100.00
71735;BME280;59577;52.122;5.406;2023-09-19T05:23:34;100909.41;;;12.24;100.00
71735;BME280;59577;52.122;5.406;2023-09-19T05:26:00;100909.81;;;12.26;100.00
71735;BME280;59577;52.122;5.406;2023-09-19T05:28:28;100914.13;;;12.27;100.00
71735;BME280;59577;52.122;5.406;2023-09-19T05:30:55;100914.19;;;12.31;100.00
71735;BME280;59577;52.122;5.406;2023-09-19T05:33:21;100915.72;;;12.32;100.00
71735;BME280;59577;52.122;5.406;2023-09-19T05:35:48;100922.03;;;12.36;100.00
71735;BME280;59577;52.122;5.406;2023-09-19T05:38:14;100907.72;;;12.39;100.00
71735;BME280;59577;52.122;5.406;2023-09-19T05:41:59;100904.78;;;12.48;100.00
71735;BME280;59577;52.122;5.406;2023-09-19T05:44:26;100907.97;;;12.53;100.00
71735;BME280;59577;52.122;5.406;2023-09-19T05:46:53;100909.22;;;12.59;100.00
71735;BME280;59577;52.122;5.406;2023-09-19T05:49:23;100908.84;;;12.61;100.00
71735;BME280;59577;52.122;5.406;2023-09-19T05:51:50;100911.63;;;12.65;100.00
71735;BME280;59577;52.122;5.406;2023-09-19T05:54:20;100908.94;;;12.68;100.00
71735;BME280;59577;52.122;5.406;2023-09-19T05:56:46;100921.50;;;12.76;100.00
71735;BME280;59577;52.122;5.406;2023-09-19T05:59:13;100921.63;;;12.84;100.00
71735;BME280;59577;52.122;5.406;2023-09-19T06:01:43;100921.25;;;12.85;100.00
71735;BME280;59577;52.122;5.406;2023-09-19T06:04:09;100929.09;;;12.90;100.00
71735;BME280;59577;52.122;5.406;2023-09-19T06:06:36;100921.00;;;12.94;100.00
71735;BME280;59577;52.122;5.406;2023-09-19T06:09:06;100928.84;;;12.99;100.00
71735;BME280;59577;52.122;5.406;2023-09-19T06:11:36;100931.25;;;13.04;99.86
71735;BME280;59577;52.122;5.406;2023-09-19T06:14:04;100944.88;;;13.08;99.25
71735;BME280;59577;52.122;5.406;2023-09-19T06:16:30;100943.00;;;13.12;99.42
71735;BME280;59577;52.122;5.406;2023-09-19T06:19:00;100946.56;;;13.16;99.17
71735;BME280;59577;52.122;5.406;2023-09-19T06:21:27;100945.81;;;13.19;99.28
71735;BME280;59577;52.122;5.406;2023-09-19T06:23:53;100946.28;;;13.25;99.60
71735;BME280;59577;52.122;5.406;2023-09-19T06:26:20;100947.91;;;13.29;99.25
71735;BME280;59577;52.122;5.406;2023-09-19T06:28:47;100946.47;;;13.35;99.51
71735;BME280;59577;52.122;5.406;2023-09-19T06:31:13;100949.28;;;13.43;98.84
71735;BME280;59577;52.122;5.406;2023-09-19T06:33:40;100937.28;;;13.47;98.48
71735;BME280;59577;52.122;5.406;2023-09-19T06:36:08;100936.19;;;13.52;98.03
71735;BME280;59577;52.122;5.406;2023-09-19T06:38:35;100934.72;;;13.58;97.77
71735;BME280;59577;52.122;5.406;2023-09-19T06:41:02;100932.09;;;13.65;97.63
71735;BME280;59577;52.122;5.406;2023-09-19T06:43:33;100936.81;;;13.72;97.14
71735;BME280;59577;52.122;5.406;2023-09-19T06:46:01;100936.94;;;13.79;97.06
71735;BME280;59577;52.122;5.406;2023-09-19T06:48:28;100935.88;;;13.91;96.64
71735;BME280;59577;52.122;5.406;2023-09-19T06:50:56;100935.69;;;14.07;96.17
71735;BME280;59577;52.122;5.406;2023-09-19T06:53:25;100940.84;;;14.19;95.78
71735;BME280;59577;52.122;5.406;2023-09-19T06:55:51;100931.22;;;14.29;95.52
71735;BME280;59577;52.122;5.406;2023-09-19T06:58:18;100937.22;;;14.45;95.15
71735;BME280;59577;52.122;5.406;2023-09-19T07:00:45;100933.94;;;14.70;94.61
71735;BME280;59577;52.122;5.406;2023-09-19T07:03:13;100925.09;;;14.88;93.89
71735;BME280;59577;52.122;5.406;2023-09-19T07:05:40;100934.50;;;14.94;92.69
71735;BME280;59577;52.122;5.406;2023-09-19T07:08:08;100932.53;;;14.91;92.86
71735;BME280;59577;52.122;5.406;2023-09-19T07:10:37;100936.59;;;15.15;92.22
71735;BME280;59577;52.122;5.406;2023-09-19T07:13:05;100934.44;;;15.49;90.94
71735;BME280;59577;52.122;5.406;2023-09-19T07:15:38;100935.78;;;15.98;89.36
71735;BME280;59577;52.122;5.406;2023-09-19T07:18:08;100935.47;;;16.29;87.37
71735;BME280;59577;52.122;5.406;2023-09-19T07:20:37;100935.88;;;16.31;86.28
71735;BME280;59577;52.122;5.406;2023-09-19T07:23:04;100939.78;;;16.44;86.32
71735;BME280;59577;52.122;5.406;2023-09-19T07:25:32;100954.22;;;16.59;85.35
71735;BME280;59577;52.122;5.406;2023-09-19T07:27:59;100955.41;;;16.65;83.78
71735;BME280;59577;52.122;5.406;2023-09-19T07:30:26;100953.88;;;16.86;84.29
71735;BME280;59577;52.122;5.406;2023-09-19T07:32:53;100947.59;;;17.07;81.59
71735;BME280;59577;52.122;5.406;2023-09-19T07:35:20;100963.13;;;17.50;81.58
71735;BME280;59577;52.122;5.406;2023-09-19T07:37:47;100956.09;;;18.30;78.05
71735;BME280;59577;52.122;5.406;2023-09-19T07:40:16;100959.13;;;18.98;74.74
71735;BME280;59577;52.122;5.406;2023-09-19T07:42:43;100967.66;;;19.42;73.62
71735;BME280;59577;52.122;5.406;2023-09-19T07:45:10;100958.53;;;19.52;72.08
71735;BME280;59577;52.122;5.406;2023-09-19T07:47:46;100960.72;;;19.99;70.58
71735;BME280;59577;52.122;5.406;2023-09-19T07:50:14;100966.22;;;20.26;68.22
71735;BME280;59577;52.122;5.406;2023-09-19T07:52:42;100955.09;;;20.61;68.12
71735;BME280;59577;52.122;5.406;2023-09-19T07:55:09;100967.66;;;20.62;68.76
71735;BME280;59577;52.122;5.406;2023-09-19T07:57:37;100971.81;;;20.74;69.22
71735;BME280;59577;52.122;5.406;2023-09-19T08:00:04;100965.25;;;21.55;66.21
71735;BME280;59577;52.122;5.406;2023-09-19T08:02:37;100965.28;;;21.71;65.47
71735;BME280;59577;52.122;5.406;2023-09-19T08:05:07;100966.44;;;21.74;64.46
71735;BME280;59577;52.122;5.406;2023-09-19T08:07:52;100968.38;;;21.93;63.45
71735;BME280;59577;52.122;5.406;2023-09-19T08:10:20;100973.84;;;22.13;64.65
71735;BME280;59577;52.122;5.406;2023-09-19T08:12:48;100970.41;;;22.26;60.61
71735;BME280;59577;52.122;5.406;2023-09-19T08:15:17;100977.38;;;21.77;63.99
71735;BME280;59577;52.122;5.406;2023-09-19T08:17:49;100977.78;;;21.36;64.49
71735;BME280;59577;52.122;5.406;2023-09-19T08:20:16;100962.78;;;20.46;67.26
71735;BME280;59577;52.122;5.406;2023-09-19T08:22:48;100967.78;;;20.27;66.01
71735;BME280;59577;52.122;5.406;2023-09-19T08:25:16;100956.06;;;19.62;69.35
71735;BME280;59577;52.122;5.406;2023-09-19T08:27:46;100955.81;;;20.14;69.50
71735;BME280;59577;52.122;5.406;2023-09-19T08:30:15;100966.84;;;20.10;68.47
71735;BME280;59577;52.122;5.406;2023-09-19T08:32:42;100966.47;;;20.36;68.80
71735;BME280;59577;52.122;5.406;2023-09-19T08:35:10;100951.25;;;20.04;68.18
71735;BME280;59577;52.122;5.406;2023-09-19T08:37:37;100957.88;;;19.76;68.38
71735;BME280;59577;52.122;5.406;2023-09-19T08:40:04;100954.03;;;19.69;69.19
71735;BME280;59577;52.122;5.406;2023-09-19T08:42:47;100957.41;;;19.46;69.54
71735;BME280;59577;52.122;5.406;2023-09-19T08:45:15;100950.34;;;19.49;71.16
71735;BME280;59577;52.122;5.406;2023-09-19T08:47:46;100953.84;;;19.49;71.15
71735;BME280;59577;52.122;5.406;2023-09-19T08:50:26;100952.28;;;19.83;71.73
71735;BME280;59577;52.122;5.406;2023-09-19T08:53:01;100954.97;;;20.17;69.40
71735;BME280;59577;52.122;5.406;2023-09-19T08:55:28;100945.28;;;20.09;68.75
71735;BME280;59577;52.122;5.406;2023-09-19T08:58:01;100955.44;;;20.12;68.26
71735;BME280;59577;52.122;5.406;2023-09-19T09:00:30;100953.47;;;20.13;69.28
71735;BME280;59577;52.122;5.406;2023-09-19T09:02:58;100953.09;;;20.89;68.06
71735;BME280;59577;52.122;5.406;2023-09-19T09:05:25;100952.47;;;21.21;66.73
71735;BME280;59577;52.122;5.406;2023-09-19T09:07:53;100943.53;;;21.37;63.56
71735;BME280;59577;52.122;5.406;2023-09-19T09:10:23;100958.41;;;21.19;63.08
71735;BME280;59577;52.122;5.406;2023-09-19T09:12:53;100951.94;;;20.62;64.88
71735;BME280;59577;52.122;5.406;2023-09-19T09:15:24;100951.66;;;20.02;66.16
71735;BME280;59577;52.122;5.406;2023-09-19T09:17:51;100952.88;;;19.98;67.93
71735;BME280;59577;52.122;5.406;2023-09-19T09:20:20;100943.53;;;19.95;67.23
71735;BME280;59577;52.122;5.406;2023-09-19T09:22:54;100949.25;;;19.73;68.18
71735;BME280;59577;52.122;5.406;2023-09-19T09:25:22;100945.75;;;19.73;69.34
71735;BME280;59577;52.122;5.406;2023-09-19T09:28:01;100945.38;;;19.71;70.40
71735;BME280;59577;52.122;5.406;2023-09-19T09:30:36;100941.09;;;19.66;70.16
71735;BME280;59577;52.122;5.406;2023-09-19T09:33:14;100937.75;;;19.51;70.74
71735;BME280;59577;52.122;5.406;2023-09-19T09:35:55;100931.31;;;19.31;69.03
71735;BME280;59577;52.122;5.406;2023-09-19T09:38:42;100940.41;;;19.59;69.22
71735;BME280;59577;52.122;5.406;2023-09-19T09:41:10;100925.72;;;19.76;67.09
71735;BME280;59577;52.122;5.406;2023-09-19T09:43:42;100937.97;;;19.99;69.25
71735;BME280;59577;52.122;5.406;2023-09-19T09:46:17;100920.69;;;20.25;67.50
71735;BME280;59577;52.122;5.406;2023-09-19T09:49:03;100930.16;;;20.21;66.99
71735;BME280;59577;52.122;5.406;2023-09-19T09:52:05;100923.72;;;20.31;66.93
71735;BME280;59577;52.122;5.406;2023-09-19T09:55:00;100919.31;;;20.37;69.35
71735;BME280;59577;52.122;5.406;2023-09-19T09:57:32;100922.16;;;20.06;66.93
71735;BME280;59577;52.122;5.406;2023-09-19T10:00:01;100924.25;;;20.22;66.82
71735;BME280;59577;52.122;5.406;2023-09-19T10:02:39;100925.53;;;19.90;68.12
71735;BME280;59577;52.122;5.406;2023-09-19T10:05:16;100923.13;;;19.62;69.40
71735;BME280;59577;52.122;5.406;2023-09-19T10:07:55;100932.53;;;19.30;69.44
71735;BME280;59577;52.122;5.406;2023-09-19T10:10:37;100925.38;;;19.40;70.12
71735;BME280;59577;52.122;5.406;2023-09-19T10:13:21;100942.00;;;19.22;71.65
71735;BME280;59577;52.122;5.406;2023-09-19T10:15:51;100930.38;;;19.10;71.79
71735;BME280;59577;52.122;5.406;2023-09-19T10:18:24;100939.69;;;18.75;69.96
71735;BME280;59577;52.122;5.406;2023-09-19T10:20:51;100934.66;;;18.70;73.07
71735;BME280;59577;52.122;5.406;2023-09-19T10:23:19;100937.88;;;18.57;71.84
71735;BME280;59577;52.122;5.406;2023-09-19T10:25:51;100926.88;;;18.61;72.64
71735;BME280;59577;52.122;5.406;2023-09-19T10:28:20;100913.00;;;18.86;72.88
71735;BME280;59577;52.122;5.406;2023-09-19T10:30:53;100927.56;;;19.17;71.98
71735;BME280;59577;52.122;5.406;2023-09-19T10:33:24;100905.53;;;19.25;70.75
71735;BME280;59577;52.122;5.406;2023-09-19T10:35:59;100908.03;;;19.08;69.52
71735;BME280;59577;52.122;5.406;2023-09-19T10:38:27;100900.94;;;19.14;70.17
71735;BME280;59577;52.122;5.406;2023-09-19T10:40:56;100893.91;;;19.44;70.21
71735;BME280;59577;52.122;5.406;2023-09-19T10:43:31;100890.81;;;19.42;70.78
71735;BME280;59577;52.122;5.406;2023-09-19T10:46:05;100889.78;;;19.29;69.59
71735;BME280;59577;52.122;5.406;2023-09-19T10:48:33;100899.72;;;19.19;70.10
71735;BME280;59577;52.122;5.406;2023-09-19T10:53:47;100897.22;;;18.94;72.40
71735;BME280;59577;52.122;5.406;2023-09-19T10:56:21;100862.06;;;18.82;72.11
71735;BME280;59577;52.122;5.406;2023-09-19T10:58:49;100881.53;;;18.94;71.15
71735;BME280;59577;52.122;5.406;2023-09-19T11:01:16;100874.94;;;19.26;71.36
71735;BME280;59577;52.122;5.406;2023-09-19T11:03:44;100876.69;;;19.44;68.69
71735;BME280;59577;52.122;5.406;2023-09-19T11:06:17;100877.91;;;19.39;69.46
71735;BME280;59577;52.122;5.406;2023-09-19T11:11:42;100856.94;;;19.83;69.09
71735;BME280;59577;52.122;5.406;2023-09-19T11:30:39;100861.56;;;20.14;68.00
71735;BME280;59577;52.122;5.406;2023-09-19T11:36:12;100855.28;;;19.59;69.21
71735;BME280;59577;52.122;5.406;2023-09-19T11:41:38;100847.31;;;19.06;71.00
71735;BME280;59577;52.122;5.406;2023-09-19T11:46:34;100837.84;;;18.76;70.38
71735;BME280;59577;52.122;5.406;2023-09-19T11:49:06;100844.84;;;18.85;70.14
71735;BME280;59577;52.122;5.406;2023-09-19T11:51:42;100834.06;;;19.01;70.83
71735;BME280;59577;52.122;5.406;2023-09-19T11:54:11;100833.75;;;19.26;68.95
71735;BME280;59577;52.122;5.406;2023-09-19T11:56:45;100835.00;;;19.22;68.87
71735;BME280;59577;52.122;5.406;2023-09-19T11:59:27;100820.19;;;19.12;68.38
71735;BME280;59577;52.122;5.406;2023-09-19T12:02:05;100840.66;;;19.07;68.67
71735;BME280;59577;52.122;5.406;2023-09-19T12:04:40;100838.00;;;19.00;69.67
71735;BME280;59577;52.122;5.406;2023-09-19T12:07:15;100846.28;;;18.93;69.44
71735;BME280;59577;52.122;5.406;2023-09-19T12:09:45;100866.38;;;18.86;69.10
71735;BME280;59577;52.122;5.406;2023-09-19T12:12:23;100853.44;;;18.87;68.88
71735;BME280;59577;52.122;5.406;2023-09-19T12:14:54;100860.31;;;19.02;69.78
71735;BME280;59577;52.122;5.406;2023-09-19T12:17:23;100859.31;;;19.20;69.50
71735;BME280;59577;52.122;5.406;2023-09-19T12:19:56;100851.19;;;19.12;69.76
71735;BME280;59577;52.122;5.406;2023-09-19T12:22:23;100847.63;;;19.15;69.59
71735;BME280;59577;52.122;5.406;2023-09-19T12:24:49;100846.06;;;19.14;68.21
71735;BME280;59577;52.122;5.406;2023-09-19T12:27:17;100850.88;;;19.07;69.03
71735;BME280;59577;52.122;5.406;2023-09-19T12:29:47;100851.41;;;18.91;68.92
71735;BME280;59577;52.122;5.406;2023-09-19T12:32:34;100844.44;;;18.79;69.41
71735;BME280;59577;52.122;5.406;2023-09-19T12:35:01;100843.72;;;18.75;70.38
71735;BME280;59577;52.122;5.406;2023-09-19T12:37:33;100836.66;;;18.77;70.36
71735;BME280;59577;52.122;5.406;2023-09-19T12:40:04;100837.69;;;18.91;71.44
71735;BME280;59577;52.122;5.406;2023-09-19T12:42:42;100833.47;;;18.86;70.75
71735;BME280;59577;52.122;5.406;2023-09-19T12:45:10;100839.41;;;18.77;71.45
71735;BME280;59577;52.122;5.406;2023-09-19T12:47:36;100832.09;;;18.64;70.42
71735;BME280;59577;52.122;5.406;2023-09-19T12:50:14;100847.50;;;18.50;71.23
71735;BME280;59577;52.122;5.406;2023-09-19T12:52:55;100854.56;;;18.48;72.36
71735;BME280;59577;52.122;5.406;2023-09-19T12:55:29;100849.06;;;18.48;73.67
71735;BME280;59577;52.122;5.406;2023-09-19T12:58:07;100836.97;;;18.45;74.35
71735;BME280;59577;52.122;5.406;2023-09-19T13:00:43;100844.38;;;18.48;73.29
71735;BME280;59577;52.122;5.406;2023-09-19T13:05:56;100846.88;;;18.73;72.39
71735;BME280;59577;52.122;5.406;2023-09-19T13:08:26;100841.72;;;18.79;73.08
71735;BME280;59577;52.122;5.406;2023-09-19T13:11:05;100844.34;;;18.93;73.20
71735;BME280;59577;52.122;5.406;2023-09-19T13:16:16;100843.19;;;18.91;72.63
71735;BME280;59577;52.122;5.406;2023-09-19T13:18:48;100856.63;;;18.78;72.12
71735;BME280;59577;52.122;5.406;2023-09-19T13:21:30;100862.63;;;18.66;73.29
71735;BME280;59577;52.122;5.406;2023-09-19T13:24:23;100874.47;;;18.55;74.26
71735;BME280;59577;52.122;5.406;2023-09-19T13:26:52;100860.88;;;18.45;74.34
71735;BME280;59577;52.122;5.406;2023-09-19T13:29:19;100865.69;;;18.30;75.10
71735;BME280;59577;52.122;5.406;2023-09-19T13:31:49;100855.47;;;18.34;75.18
71735;BME280;59577;52.122;5.406;2023-09-19T13:34:16;100849.84;;;18.52;74.64
71735;BME280;59577;52.122;5.406;2023-09-19T13:36:44;100851.13;;;18.78;75.05
71735;BME280;59577;52.122;5.406;2023-09-19T13:39:11;100844.38;;;18.90;73.64
71735;BME280;59577;52.122;5.406;2023-09-19T13:41:44;100843.91;;;18.98;73.99
71735;BME280;59577;52.122;5.406;2023-09-19T13:44:14;100828.44;;;19.12;73.47
71735;BME280;59577;52.122;5.406;2023-09-19T13:46:40;100831.53;;;19.17;72.46
71735;BME280;59577;52.122;5.406;2023-09-19T13:49:12;100831.56;;;19.14;72.85
71735;BME280;59577;52.122;5.406;2023-09-19T13:51:39;100820.97;;;19.16;71.68